Time;durP1;ratioP1;P1;durP2;ratioP2;P2;SDS_P1;SDS_P2;PMS_P1;PMS_P2;Temp;Humidity;BMP_temperature;BMP_pressure;BME280_temperature;BME280_humidity;BME280_pressure;Samples;Min_cycle;Max_cycle;Signal;HPM_P1;HPM_P2
2020/12/26 00:01:01;;;;;;;14.02;5.93;;;5.00;91.80;;;5.29;75.32;101411.38;4982704;28;20054;-85
2020/12/26 00:03:28;;;;;;;13.02;5.90;;;5.10;91.90;;;5.29;75.88;101409.53;4981717;28;20105;-85
2020/12/26 00:05:55;;;;;;;14.13;5.80;;;5.00;91.80;;;5.30;75.70;101410.41;4981322;28;20074;-85
2020/12/26 00:08:22;;;;;;;11.93;6.60;;;5.10;91.90;;;5.29;75.40;101408.66;4981890;28;20082;-85
2020/12/26 00:10:49;;;;;;;19.48;7.35;;;5.10;91.90;;;5.27;75.62;101406.13;4982027;28;20047;-85
2020/12/26 00:13:16;;;;;;;15.90;6.60;;;5.10;91.90;;;5.25;75.55;101401.81;4980332;28;20051;-85
2020/12/26 00:15:43;;;;;;;15.77;6.85;;;5.10;91.70;;;5.34;75.51;101406.44;4981809;28;20042;-85
2020/12/26 00:18:09;;;;;;;14.30;6.28;;;5.20;91.90;;;5.23;75.63;101406.50;4982261;28;20093;-85
2020/12/26 00:20:36;;;;;;;13.90;6.10;;;5.10;91.70;;;5.31;75.88;101403.16;4981743;28;20066;-85
2020/12/26 00:23:03;;;;;;;16.05;7.00;;;5.10;91.60;;;5.25;75.42;101402.69;4981668;28;20085;-85
2020/12/26 00:25:29;;;;;;;13.27;6.57;;;5.20;91.50;;;5.22;75.63;101402.09;4981434;28;20043;-85
2020/12/26 00:27:57;;;;;;;18.15;7.25;;;5.10;91.70;;;5.25;75.98;101401.81;4984300;28;20055;-85
2020/12/26 00:30:24;;;;;;;16.50;6.82;;;5.10;91.80;;;5.21;76.21;101405.75;4986296;28;20549;-85
2020/12/26 00:32:50;;;;;;;18.40;6.97;;;5.10;91.80;;;5.25;76.07;101407.22;4985815;28;20070;-85
2020/12/26 00:35:17;;;;;;;14.35;7.40;;;5.10;91.80;;;5.21;76.09;101411.16;4985250;28;20061;-85
2020/12/26 00:37:44;;;;;;;13.63;7.68;;;5.10;91.80;;;5.24;76.00;101416.31;4985923;28;20042;-85
2020/12/26 00:40:10;;;;;;;16.25;8.15;;;5.10;91.90;;;5.26;76.11;101412.50;4968021;28;20042;-85
2020/12/26 00:42:37;;;;;;;15.70;7.95;;;5.10;91.90;;;5.25;76.22;101408.09;4984606;28;20053;-84
2020/12/26 00:45:05;;;;;;;20.17;8.75;;;5.30;92.10;;;5.28;76.10;101413.22;4985157;28;20519;-85
2020/12/26 00:47:32;;;;;;;15.93;6.95;;;5.10;91.90;;;5.26;76.39;101425.13;4984923;28;20054;-85
2020/12/26 00:49:58;;;;;;;14.73;7.25;;;5.10;91.90;;;5.27;76.37;101416.03;4968066;28;20050;-85
2020/12/26 00:52:25;;;;;;;18.10;7.65;;;5.10;91.90;;;5.21;76.18;101421.94;4983245;28;20078;-85
2020/12/26 00:54:52;;;;;;;13.20;6.80;;;5.20;91.90;;;5.26;76.40;101419.75;4967623;28;20038;-85
2020/12/26 00:57:19;;;;;;;16.15;7.32;;;5.20;91.90;;;5.27;76.33;101399.84;4967688;28;20122;-85
2020/12/26 00:59:45;;;;;;;12.20;7.07;;;5.10;91.90;;;5.34;75.57;101401.06;4984875;28;20054;-85
2020/12/26 01:02:14;;;;;;;16.83;6.72;;;5.20;91.80;;;5.40;76.38;101395.13;4984441;28;20051;-85
2020/12/26 01:04:49;;;;;;;19.98;7.63;;;5.20;91.90;;;5.50;75.46;101395.22;4967201;28;20051;-85
2020/12/26 01:07:16;;;;;;;14.88;7.10;;;5.20;91.90;;;5.44;75.42;101388.47;4985510;28;20050;-85
2020/12/26 01:09:42;;;;;;;12.15;6.82;;;5.20;91.90;;;5.45;75.91;101403.72;4985659;28;20055;-85
2020/12/26 01:12:09;;;;;;;14.85;7.43;;;5.20;91.90;;;5.35;75.77;101397.38;4984513;28;20774;-85
2020/12/26 01:14:36;;;;;;;14.07;6.75;;;5.20;91.90;;;5.38;75.70;101402.50;4984684;28;20039;-85
2020/12/26 01:17:03;;;;;;;14.50;6.63;;;5.20;91.90;;;5.37;76.15;101408.91;4985812;28;20444;-85
2020/12/26 01:19:30;;;;;;;16.30;6.85;;;5.20;91.90;;;5.48;75.74;101419.66;4984810;28;20571;-85
2020/12/26 01:21:57;;;;;;;13.80;6.90;;;5.30;92.00;;;5.49;75.70;101405.16;4984279;28;20066;-85
2020/12/26 01:24:24;;;;;;;16.92;7.50;;;5.20;91.90;;;5.47;75.68;101409.84;4967332;28;20062;-85
2020/12/26 01:26:51;;;;;;;19.17;6.82;;;5.20;91.80;;;5.40;75.56;101414.03;4984580;28;20451;-85
2020/12/26 01:29:19;;;;;;;13.65;7.07;;;5.30;91.90;;;5.36;75.94;101414.44;4984723;28;20043;-85
2020/12/26 01:31:50;;;;;;;14.82;6.22;;;5.50;91.90;;;5.44;75.66;101412.78;4984796;28;20054;-85
2020/12/26 01:34:18;;;;;;;17.73;5.85;;;5.30;91.80;;;5.42;75.41;101413.91;4985115;28;20074;-85
2020/12/26 01:36:50;;;;;;;12.35;5.90;;;5.30;91.70;;;5.45;75.61;101413.66;4982681;28;20093;-85
2020/12/26 01:39:17;;;;;;;13.27;6.22;;;5.30;91.70;;;5.40;75.65;101415.88;4985145;28;20043;-85
2020/12/26 01:41:47;;;;;;;14.05;6.22;;;5.30;91.40;;;5.34;75.87;101419.94;4985219;28;20558;-85
2020/12/26 01:44:14;;;;;;;16.33;6.45;;;5.30;91.30;;;5.32;75.98;101419.22;4967487;28;20070;-85
2020/12/26 01:46:41;;;;;;;15.95;6.45;;;5.30;91.20;;;5.45;75.58;101419.91;4965377;28;20043;-85
2020/12/26 01:49:08;;;;;;;11.20;6.22;;;5.30;91.40;;;5.49;75.31;101415.97;4967264;28;20408;-85
2020/12/26 01:51:35;;;;;;;11.02;6.00;;;5.30;91.50;;;5.43;75.47;101413.78;4984521;28;20146;-85
2020/12/26 01:54:03;;;;;;;15.15;6.28;;;5.30;91.50;;;5.43;75.41;101411.09;4984593;28;20078;-85
2020/12/26 01:56:31;;;;;;;12.43;6.40;;;5.30;91.60;;;5.43;75.74;101415.63;4984140;28;20058;-85
2020/12/26 01:58:58;;;;;;;17.88;6.55;;;5.30;91.50;;;5.44;75.88;101418.19;4983660;28;20155;-85
2020/12/26 02:01:33;;;;;;;11.07;6.03;;;5.30;91.20;;;5.47;75.68;101420.63;4984338;28;20430;-85
2020/12/26 02:04:00;;;;;;;14.52;6.57;;;5.30;91.30;;;5.53;75.43;101423.81;4984701;28;20082;-85
2020/12/26 02:06:30;;;;;;;14.70;6.68;;;5.30;91.40;;;5.46;75.70;101421.63;4983306;28;20053;-85
2020/12/26 02:08:59;;;;;;;15.20;6.80;;;5.30;91.30;;;5.41;75.43;101418.44;4983760;28;20142;-85
2020/12/26 02:11:28;;;;;;;18.17;7.80;;;5.30;91.30;;;5.39;75.41;101423.13;4982777;28;20046;-85
2020/12/26 02:13:55;;;;;;;17.67;8.70;;;5.30;91.10;;;5.37;75.51;101417.00;4981063;28;20447;-85
2020/12/26 02:16:22;;;;;;;15.27;8.95;;;5.30;91.10;;;5.31;75.88;101422.88;4983733;28;20097;-85
2020/12/26 02:18:49;;;;;;;18.02;9.07;;;5.30;91.20;;;5.32;75.96;101421.91;4983817;28;20051;-85
2020/12/26 02:21:17;;;;;;;21.08;9.43;;;5.30;91.30;;;5.29;75.92;101425.75;4984215;28;20130;-85
2020/12/26 02:23:46;;;;;;;20.85;9.60;;;5.20;91.10;;;5.29;75.94;101430.25;4983647;28;20069;-85
2020/12/26 02:26:13;;;;;;;17.55;10.20;;;5.20;91.20;;;5.26;76.11;101420.59;4983476;28;20046;-85
2020/12/26 02:28:41;;;;;;;18.23;10.02;;;5.20;91.30;;;5.22;76.04;101420.97;4983187;28;20133;-85
2020/12/26 02:31:08;;;;;;;13.77;8.95;;;5.20;91.10;;;5.23;76.33;101419.97;4983362;28;20098;-85
2020/12/26 02:33:35;;;;;;;18.05;10.40;;;5.40;91.30;;;5.37;75.86;101410.72;4982832;28;20070;-85
2020/12/26 02:36:02;;;;;;;20.25;11.52;;;5.40;91.50;;;5.43;75.59;101411.09;4983757;28;20098;-85
2020/12/26 02:38:29;;;;;;;19.50;10.90;;;5.20;91.20;;;5.43;75.22;101416.47;4983254;28;20051;-85
2020/12/26 02:40:57;;;;;;;25.58;11.10;;;5.20;91.10;;;5.41;75.15;101407.66;4982921;28;20062;-85
2020/12/26 02:43:26;;;;;;;18.23;11.18;;;5.20;91.10;;;5.46;74.87;101408.13;4981231;28;20061;-85
2020/12/26 02:45:54;;;;;;;19.77;11.60;;;5.20;91.20;;;5.45;74.99;101408.25;4983518;28;20039;-85
2020/12/26 02:48:22;;;;;;;20.23;11.13;;;5.10;91.10;;;5.40;74.78;101411.31;4983724;28;20047;-85
2020/12/26 02:50:49;;;;;;;21.83;11.90;;;5.10;91.00;;;5.31;75.06;101405.84;4983342;28;20082;-85
2020/12/26 02:53:16;;;;;;;20.83;11.98;;;5.10;91.10;;;5.39;75.40;101403.38;4983964;28;20062;-85
2020/12/26 02:55:43;;;;;;;25.52;12.02;;;5.10;91.20;;;5.32;74.79;101403.03;4983533;28;20718;-85
2020/12/26 02:58:10;;;;;;;22.05;11.75;;;5.10;91.20;;;5.29;75.50;101408.66;4983099;28;20508;-85
2020/12/26 03:00:37;;;;;;;23.63;11.95;;;5.10;91.30;;;5.37;74.69;101406.22;4983995;28;20065;-85
2020/12/26 03:03:04;;;;;;;25.00;12.18;;;5.10;91.20;;;5.31;75.22;101405.84;4983011;28;20522;-85
2020/12/26 03:05:31;;;;;;;19.27;11.90;;;5.10;91.40;;;5.28;74.89;101396.19;4983548;28;20116;-85
2020/12/26 03:07:58;;;;;;;21.42;10.90;;;5.10;91.30;;;5.21;75.21;101392.28;4983709;28;20066;-86
2020/12/26 03:10:25;;;;;;;22.13;11.30;;;5.00;91.30;;;5.33;75.42;101393.97;4982999;28;20070;-85
2020/12/26 03:12:51;;;;;;;20.50;10.77;;;5.10;91.40;;;5.18;75.69;101389.81;4981188;28;20098;-85
2020/12/26 03:15:19;;;;;;;17.50;10.48;;;5.10;91.30;;;5.22;75.96;101386.75;4983548;28;20066;-85
2020/12/26 03:17:46;;;;;;;20.88;10.32;;;5.10;91.50;;;5.25;75.20;101385.63;4982431;28;20042;-85
2020/12/26 03:20:12;;;;;;;19.48;10.13;;;5.10;91.40;;;5.23;75.31;101379.50;4983863;28;20054;-85
2020/12/26 03:22:39;;;;;;;16.17;9.60;;;5.10;91.70;;;5.24;75.41;101382.09;4983279;28;20085;-85
2020/12/26 03:25:06;;;;;;;19.90;9.20;;;5.10;91.50;;;5.25;75.72;101381.09;4983433;28;20484;-85
2020/12/26 03:27:33;;;;;;;15.00;8.60;;;5.10;91.60;;;5.31;75.37;101379.72;4982504;28;20055;-85
2020/12/26 03:30:00;;;;;;;19.35;8.90;;;5.00;91.50;;;5.30;74.92;101378.00;4982991;28;20065;-85
2020/12/26 03:32:27;;;;;;;17.38;8.35;;;5.10;91.50;;;5.37;75.36;101370.22;4982993;28;20066;-85
2020/12/26 03:34:54;;;;;;;15.07;8.25;;;5.10;91.70;;;5.34;75.37;101363.25;4982437;28;20074;-85
2020/12/26 03:37:21;;;;;;;13.82;7.70;;;5.00;91.50;;;5.34;75.04;101365.97;4982555;28;20070;-85
2020/12/26 03:39:48;;;;;;;17.92;7.80;;;5.10;91.40;;;5.39;74.77;101358.34;4982684;28;20078;-85
2020/12/26 03:42:14;;;;;;;19.17;8.82;;;5.20;91.50;;;5.35;75.22;101356.91;4981762;28;20085;-85
2020/12/26 03:44:41;;;;;;;13.10;7.50;;;5.00;91.30;;;5.38;74.75;101359.31;4982581;28;20518;-85
2020/12/26 03:47:10;;;;;;;11.77;7.47;;;5.00;91.60;;;5.40;74.86;101359.19;4982689;28;20050;-85
2020/12/26 03:49:39;;;;;;;13.63;7.40;;;5.10;91.40;;;5.41;74.78;101359.06;4982104;28;20078;-85
2020/12/26 03:52:06;;;;;;;14.23;7.28;;;5.10;91.50;;;5.29;75.02;101370.88;4982378;28;20077;-85
2020/12/26 03:54:33;;;;;;;14.18;6.90;;;5.00;91.30;;;5.33;75.07;101352.59;4964617;28;20047;-85
2020/12/26 03:57:00;;;;;;;14.55;7.45;;;5.00;91.60;;;5.31;75.31;101354.56;4981877;28;20126;-85
2020/12/26 03:59:26;;;;;;;15.55;7.20;;;5.00;91.60;;;5.27;75.56;101351.28;4980940;28;20058;-85
2020/12/26 04:01:53;;;;;;;13.95;7.32;;;5.10;91.60;;;5.29;75.07;101346.59;4963539;28;20508;-85
2020/12/26 04:04:20;;;;;;;12.13;7.60;;;5.10;91.50;;;5.34;75.08;101352.47;4981299;28;20542;-85
2020/12/26 04:06:47;;;;;;;18.55;7.82;;;5.00;91.50;;;5.32;75.30;101354.44;4981317;28;20509;-85
2020/12/26 04:09:14;;;;;;;19.20;7.82;;;5.10;91.60;;;5.37;75.18;101349.53;4982024;28;20049;-84
2020/12/26 04:11:42;;;;;;;13.60;7.75;;;5.10;91.50;;;5.44;74.71;101341.75;4982140;28;20571;-85
2020/12/26 04:14:09;;;;;;;20.02;7.43;;;5.10;91.40;;;5.38;75.04;101351.22;4982305;28;20042;-85
2020/12/26 04:16:36;;;;;;;15.18;7.10;;;5.10;91.50;;;5.32;75.25;101348.19;4981939;28;20065;-85
2020/12/26 04:19:03;;;;;;;14.73;7.75;;;5.10;91.50;;;5.40;74.91;101351.94;4964458;28;20043;-85
2020/12/26 04:21:29;;;;;;;14.13;7.60;;;5.10;91.60;;;5.37;75.19;101346.81;4981900;28;20086;-85
2020/12/26 04:23:57;;;;;;;13.65;8.00;;;5.10;91.60;;;5.40;75.04;101341.16;4981404;28;20062;-86
2020/12/26 04:26:24;;;;;;;16.13;8.15;;;5.10;91.60;;;5.43;75.12;101340.91;4981747;28;20105;-85
2020/12/26 04:28:51;;;;;;;15.07;7.78;;;5.10;91.70;;;5.37;74.90;101333.31;4982040;28;20044;-85
2020/12/26 04:31:19;;;;;;;16.73;8.10;;;5.10;91.60;;;5.31;75.33;101331.13;4981553;28;20086;-84
2020/12/26 04:33:46;;;;;;;16.73;9.02;;;5.10;91.60;;;5.33;75.42;101329.19;4982104;28;20066;-85
2020/12/26 04:36:13;;;;;;;16.58;8.70;;;5.10;91.60;;;5.41;75.53;101326.69;4981624;28;20045;-85
2020/12/26 04:38:39;;;;;;;17.02;9.38;;;5.10;91.70;;;5.34;75.69;101317.38;4981864;28;20047;-85
2020/12/26 04:41:07;;;;;;;21.08;11.43;;;5.20;91.70;;;5.33;75.65;101318.38;4981915;28;20130;-85
2020/12/26 04:43:34;;;;;;;25.83;11.60;;;5.10;91.60;;;5.37;75.45;101325.22;4981129;28;20051;-85
2020/12/26 04:46:12;;;;;;;19.83;11.25;;;5.20;91.70;;;5.39;75.39;101317.84;4981815;28;20145;-85
2020/12/26 04:49:02;;;;;;;21.92;11.32;;;5.20;91.60;;;5.38;75.48;101321.53;4982061;28;20098;-85
2020/12/26 04:51:33;;;;;;;22.20;11.80;;;5.20;91.80;;;5.34;75.80;101317.38;4980593;28;20079;-85
2020/12/26 04:54:14;;;;;;;19.17;11.63;;;5.20;91.90;;;5.37;76.00;101302.75;4981533;28;20062;-85
2020/12/26 04:56:44;;;;;;;24.30;12.48;;;5.20;91.90;;;5.36;75.74;101307.31;4981637;28;20054;-85
2020/12/26 04:59:13;;;;;;;20.42;12.57;;;5.20;91.90;;;5.37;76.09;101298.25;4981185;28;20051;-85
2020/12/26 05:01:41;;;;;;;23.13;12.63;;;5.20;91.90;;;5.32;76.00;101305.84;4981908;28;20050;-85
2020/12/26 05:04:10;;;;;;;19.30;12.43;;;5.20;91.90;;;5.33;76.48;101296.78;4981735;28;20090;-85
2020/12/26 05:06:47;;;;;;;23.33;13.32;;;5.20;91.90;;;5.42;76.30;101295.97;4981851;28;20047;-85
2020/12/26 05:09:16;;;;;;;25.67;12.48;;;5.30;92.30;;;5.38;76.64;101294.53;4982199;28;20043;-85
2020/12/26 05:11:51;;;;;;;22.60;12.45;;;5.20;92.10;;;5.49;76.22;101302.56;4981048;28;20086;-85
2020/12/26 05:14:19;;;;;;;24.35;13.18;;;5.30;92.50;;;5.57;75.63;101298.34;4983942;28;20074;-85
2020/12/26 05:16:46;;;;;;;25.75;12.13;;;5.30;92.60;;;5.52;76.23;101295.19;4985351;28;20082;-85
2020/12/26 05:19:13;;;;;;;20.25;12.80;;;5.30;92.40;;;5.51;76.20;101288.94;4985085;28;20054;-85
2020/12/26 05:21:39;;;;;;;19.40;12.18;;;5.50;92.30;;;5.45;76.22;101298.44;4967466;28;20149;-85
2020/12/26 05:24:09;;;;;;;23.65;12.60;;;5.30;92.10;;;5.51;75.96;101297.03;4984935;28;20462;-85
2020/12/26 05:26:41;;;;;;;22.73;12.63;;;5.30;92.10;;;5.47;76.28;101295.59;4984289;28;20050;-85
2020/12/26 05:29:10;;;;;;;19.52;12.00;;;5.30;92.10;;;5.42;76.29;101289.72;4984978;28;20066;-85
2020/12/26 05:31:53;;;;;;;21.02;11.93;;;5.30;92.10;;;5.45;76.37;101287.63;4984724;28;20496;-85
2020/12/26 05:34:21;;;;;;;16.65;10.63;;;5.40;92.00;;;5.47;76.55;101288.34;4984536;28;20043;-85
2020/12/26 05:36:48;;;;;;;22.95;11.63;;;5.30;92.10;;;5.49;76.77;101275.56;4985106;28;20069;-85
2020/12/26 05:39:15;;;;;;;21.83;12.48;;;5.40;92.00;;;5.48;76.56;101276.56;4984779;28;20078;-85
2020/12/26 05:41:44;;;;;;;19.85;11.90;;;5.40;92.00;;;5.40;76.74;101279.06;4983823;28;20055;-85
2020/12/26 05:44:13;;;;;;;21.65;11.73;;;5.40;91.90;;;5.46;76.81;101272.28;4984858;28;20038;-84
2020/12/26 05:46:56;;;;;;;19.25;12.13;;;5.40;92.00;;;5.50;76.13;101271.00;4984802;28;20127;-85
2020/12/26 05:49:30;;;;;;;23.40;12.90;;;5.40;92.10;;;5.49;76.79;101259.38;4983262;28;20085;-85
2020/12/26 05:52:04;;;;;;;21.20;11.98;;;5.40;92.10;;;5.50;76.79;101257.53;4984078;28;20047;-85
2020/12/26 05:54:31;;;;;;;22.05;11.80;;;5.40;92.40;;;5.52;76.75;101262.78;4984422;28;20058;-85
2020/12/26 05:57:16;;;;;;;19.20;11.45;;;5.40;92.20;;;5.49;76.57;101261.22;4984941;28;20047;-85
2020/12/26 05:59:48;;;;;;;24.63;12.65;;;5.40;92.20;;;5.49;76.94;101255.81;4983863;28;20046;-85
2020/12/26 06:02:24;;;;;;;19.20;11.38;;;5.50;92.30;;;5.55;77.03;101259.84;4984235;28;20074;-85
2020/12/26 06:05:00;;;;;;;19.33;11.45;;;5.40;92.10;;;5.54;76.45;101258.13;4977172;28;20058;-85
2020/12/26 06:07:29;;;;;;;20.40;11.35;;;5.50;92.20;;;5.52;76.72;101252.88;4972486;28;20066;-85
2020/12/26 06:09:58;;;;;;;22.92;12.10;;;5.40;92.10;;;5.55;76.68;101249.03;4983823;28;20053;-85
2020/12/26 06:12:27;;;;;;;20.05;10.95;;;5.50;92.40;;;5.61;76.23;101252.03;4983537;28;20078;-85
2020/12/26 06:14:55;;;;;;;21.38;11.55;;;5.50;92.30;;;5.58;76.89;101251.44;4983804;28;20081;-85
2020/12/26 06:17:25;;;;;;;18.80;11.18;;;5.50;92.30;;;5.55;76.53;101244.47;4984501;28;20066;-85
2020/12/26 06:20:04;;;;;;;18.20;11.30;;;5.50;92.20;;;5.52;76.75;101243.91;4975470;28;20841;-85
2020/12/26 06:22:46;;;;;;;16.20;10.60;;;5.50;92.10;;;5.58;76.25;101249.63;4984030;28;20077;-85
2020/12/26 06:25:15;;;;;;;17.10;10.50;;;5.50;91.90;;;5.57;76.08;101253.31;4983368;28;20066;-85
2020/12/26 06:27:59;;;;;;;21.05;11.38;;;5.40;91.90;;;5.56;76.35;101253.44;4979798;28;20046;-85
2020/12/26 06:30:27;;;;;;;21.10;11.50;;;5.40;91.70;;;5.53;76.27;101256.41;4964511;29;20074;-85
2020/12/26 06:32:56;;;;;;;17.05;10.60;;;5.40;91.70;;;5.58;76.19;101256.84;4965102;28;20059;-84
2020/12/26 06:35:23;;;;;;;18.40;10.55;;;5.40;91.80;;;5.56;75.98;101261.53;4983209;28;20079;-84
2020/12/26 06:38:15;;;;;;;16.83;11.25;;;5.40;91.80;;;5.63;75.95;101262.72;4983558;28;20054;-85
2020/12/26 06:40:56;;;;;;;;;;;5.40;91.90;;;5.55;76.44;101252.59;4984365;28;20047;-85
2020/12/26 06:43:53;;;;;;;17.25;10.60;;;5.40;91.70;;;5.57;76.13;101249.75;4982450;28;19969;-85
2020/12/26 06:46:39;;;;;;;21.40;11.90;;;5.40;91.80;;;5.49;76.35;101248.56;4983832;28;20109;-85
2020/12/26 06:49:07;;;;;;;18.55;10.57;;;5.40;91.80;;;5.51;76.68;101250.31;4965222;28;20047;-85
2020/12/26 06:51:41;;;;;;;16.17;10.60;;;5.40;91.80;;;5.47;76.64;101261.34;4983319;28;20066;-85
2020/12/26 06:54:08;;;;;;;17.40;11.10;;;5.40;91.70;;;5.44;76.50;101255.34;4982106;28;20046;-85
2020/12/26 06:56:46;;;;;;;19.30;10.80;;;5.40;91.70;;;5.51;76.63;101259.25;4982518;28;20070;-84
2020/12/26 06:59:14;;;;;;;19.52;10.55;;;5.40;91.90;;;5.53;75.83;101269.91;4983976;28;20051;-85
2020/12/26 07:01:44;;;;;;;18.63;11.02;;;5.40;91.70;;;5.54;76.41;101271.59;4983164;28;20043;-85
2020/12/26 07:04:15;;;;;;;21.02;11.35;;;5.40;91.70;;;5.48;76.03;101271.19;4982913;28;20474;-85
2020/12/26 07:06:44;;;;;;;20.25;11.38;;;5.30;91.80;;;5.49;75.54;101270.16;4982447;28;20051;-85
2020/12/26 07:09:14;;;;;;;17.73;12.00;;;5.40;91.70;;;5.53;76.12;101275.31;4983007;28;20527;-85
2020/12/26 07:11:46;;;;;;;22.23;12.60;;;5.30;91.70;;;5.49;76.12;101275.56;4981632;28;20118;-85
2020/12/26 07:14:30;;;;;;;18.75;11.82;;;5.30;91.80;;;5.48;76.10;101279.28;4981878;28;20043;-85
2020/12/26 07:16:59;;;;;;;16.65;11.45;;;5.30;91.80;;;5.53;75.85;101275.31;4981374;28;20054;-85
2020/12/26 07:19:30;;;;;;;17.58;10.77;;;5.40;91.70;;;5.53;75.79;101283.41;4982649;28;20043;-85
2020/12/26 07:21:59;;;;;;;18.80;11.25;;;5.40;91.50;;;5.62;75.76;101282.63;4983373;28;20054;-85
2020/12/26 07:24:37;;;;;;;21.50;10.30;;;5.30;91.60;;;5.56;75.76;101291.22;4981316;28;20082;-85
2020/12/26 07:27:24;;;;;;;17.40;10.38;;;5.40;91.80;;;5.51;76.12;101288.94;4982405;28;20121;-85
2020/12/26 07:30:09;;;;;;;20.17;10.90;;;5.40;92.00;;;5.58;75.91;101283.84;4982834;28;20066;-85
2020/12/26 07:32:45;;;;;;;19.83;12.57;;;5.40;91.90;;;5.58;76.19;101275.75;4982661;28;20050;-85
2020/12/26 07:35:32;;;;;;;19.10;12.13;;;5.50;91.80;;;5.55;75.94;101278.75;4981773;28;20043;-85
2020/12/26 07:38:04;;;;;;;23.92;13.52;;;5.40;91.50;;;5.53;75.80;101278.00;4983177;28;20078;-85
2020/12/26 07:40:39;;;;;;;21.83;13.27;;;5.40;91.50;;;5.52;75.59;101273.59;4983112;28;20534;-85
2020/12/26 07:43:11;;;;;;;24.00;14.23;;;5.40;91.50;;;5.54;75.91;101269.78;4981747;28;20050;-85
2020/12/26 07:45:41;;;;;;;25.15;13.90;;;5.60;91.50;;;5.48;76.20;101283.78;4965119;28;20074;-85
2020/12/26 07:48:10;;;;;;;23.35;14.30;;;5.50;91.50;;;5.57;76.02;101282.16;4977501;28;20062;-85
2020/12/26 07:50:39;;;;;;;21.40;14.32;;;5.40;91.40;;;5.56;76.23;101283.13;4963635;29;20135;-85
2020/12/26 07:53:07;;;;;;;27.92;15.35;;;5.50;91.70;;;5.62;76.22;101290.72;4962777;28;20067;-85
2020/12/26 07:55:35;;;;;;;26.23;15.38;;;5.40;91.70;;;5.56;76.38;101288.53;4962412;29;20094;-85
2020/12/26 07:58:06;;;;;;;22.42;14.35;;;5.40;91.60;;;5.53;76.26;101296.91;4970032;28;20129;-85
2020/12/26 08:00:34;;;;;;;24.20;14.18;;;5.40;91.80;;;5.56;76.00;101296.63;4981686;28;20523;-84
2020/12/26 08:03:06;;;;;;;21.55;13.77;;;5.50;91.80;;;5.56;75.84;101292.09;4980098;28;20051;-85
2020/12/26 08:05:34;;;;;;;;;;;5.50;91.70;;;5.57;76.26;101301.06;4962291;28;20054;-85
2020/12/26 08:08:11;;;;;;;21.45;13.65;;;5.50;91.50;;;5.64;75.81;101304.94;4977372;28;20359;-87
2020/12/26 08:10:38;;;;;;;20.50;12.80;;;5.50;91.50;;;5.66;76.10;101298.41;4976676;28;20047;-85
2020/12/26 08:13:05;;;;;;;22.05;13.32;;;5.40;91.60;;;5.71;75.48;101300.69;4975742;28;20471;-84
2020/12/26 08:15:32;;;;;;;21.63;13.60;;;5.50;91.80;;;5.65;75.69;101299.41;4974322;28;20506;-85
2020/12/26 08:18:01;;;;;;;18.02;12.23;;;5.50;91.40;;;5.66;75.83;101292.16;4973661;28;20577;-86
2020/12/26 08:20:30;;;;;;;18.42;11.05;;;5.50;91.40;;;5.66;75.74;101292.16;4973387;28;20047;-86
2020/12/26 08:22:58;;;;;;;20.63;11.27;;;5.50;91.20;;;5.65;75.65;101296.72;4955648;28;20078;-86
2020/12/26 08:25:28;;;;;;;18.33;12.23;;;5.50;91.30;;;5.62;75.54;101302.38;4973934;28;20050;-85
2020/12/26 08:27:55;;;;;;;20.75;11.02;;;5.50;91.20;;;5.60;75.52;101292.69;4972851;28;20130;-85
2020/12/26 08:30:26;;;;;;;16.60;10.85;;;5.50;90.90;;;5.61;74.93;101289.00;4965216;28;20118;-85
2020/12/26 08:33:15;;;;;;;15.20;10.65;;;5.50;90.70;;;5.58;75.02;101289.25;4954119;28;20090;-86
2020/12/26 08:35:51;;;;;;;17.00;10.65;;;5.50;90.90;;;5.64;74.93;101294.13;4955902;28;20110;-85
2020/12/26 08:38:26;;;;;;;20.70;11.73;;;5.40;90.80;;;5.65;75.31;101306.63;4973478;28;20089;-86
2020/12/26 08:41:00;;;;;;;17.02;10.57;;;5.40;90.90;;;5.61;74.98;101313.31;4955837;28;20086;-85
2020/12/26 08:43:26;;;;;;;17.92;10.75;;;5.60;90.90;;;5.59;75.01;101309.88;4955532;28;20085;-85
2020/12/26 08:45:53;;;;;;;16.30;10.10;;;5.40;91.10;;;5.52;75.54;101303.28;4973431;28;20123;-85
2020/12/26 08:48:22;;;;;;;17.98;9.80;;;5.50;91.00;;;5.59;75.96;101301.78;4975774;28;20746;-85
2020/12/26 08:50:57;;;;;;;16.08;9.50;;;5.50;91.00;;;5.63;75.86;101297.81;4959715;28;20113;-85
2020/12/26 08:53:25;;;;;;;17.73;9.48;;;5.50;91.00;;;5.62;75.90;101299.66;4977198;28;20079;-85
2020/12/26 08:55:53;;;;;;;16.45;8.60;;;5.50;90.90;;;5.63;75.63;101289.72;4976897;28;20070;-85
2020/12/26 08:58:26;;;;;;;14.98;8.40;;;5.60;90.80;;;5.61;75.46;101289.84;4977332;28;20487;-87
2020/12/26 09:00:54;;;;;;;15.75;8.55;;;5.60;90.90;;;5.60;75.76;101287.31;4981106;28;20050;-83
2020/12/26 09:03:25;;;;;;;14.18;8.88;;;5.80;90.70;;;5.61;75.16;101281.75;4979525;28;20574;-84
2020/12/26 09:05:54;;;;;;;16.17;8.93;;;5.60;90.20;;;5.60;75.72;101282.75;4977993;28;20126;-85
2020/12/26 09:08:29;;;;;;;13.65;8.15;;;5.60;90.10;;;5.68;75.41;101280.22;4977703;28;20046;-85
2020/12/26 09:10:59;;;;;;;16.10;8.43;;;5.60;90.20;;;5.63;75.16;101287.03;4977816;28;20077;-85
2020/12/26 09:13:37;;;;;;;16.50;8.48;;;5.70;90.20;;;5.66;75.16;101282.22;4977326;28;20125;-84
2020/12/26 09:16:10;;;;;;;12.38;7.95;;;5.70;90.00;;;5.68;75.26;101280.22;4976039;28;20090;-85
2020/12/26 09:18:40;;;;;;;15.32;7.97;;;5.70;90.00;;;5.71;74.57;101281.78;4954725;28;20054;-85
2020/12/26 09:21:08;;;;;;;16.98;8.38;;;5.70;90.00;;;5.70;75.06;101285.50;4977044;28;20121;-85
2020/12/26 09:23:38;;;;;;;14.43;8.32;;;5.70;89.50;;;5.77;74.77;101272.28;4976094;28;20133;-85
2020/12/26 09:26:13;;;;;;;17.13;9.23;;;5.70;89.80;;;5.83;74.51;101277.19;4976543;28;20070;-85
2020/12/26 09:28:45;;;;;;;13.40;8.35;;;5.80;89.60;;;5.82;74.80;101281.72;4979803;28;20047;-86
2020/12/26 09:31:13;;;;;;;17.38;8.02;;;5.80;89.80;;;5.79;73.85;101268.50;4975765;28;20483;-85
2020/12/26 09:33:41;;;;;;;15.95;8.00;;;5.80;89.10;;;5.81;74.02;101263.81;4976423;28;20070;-85
2020/12/26 09:36:11;;;;;;;16.77;8.27;;;5.80;89.10;;;5.82;74.03;101260.09;4976507;28;20404;-85
2020/12/26 09:38:40;;;;;;;18.48;8.93;;;6.10;89.10;;;5.90;74.65;101261.28;4958541;28;20440;-85
2020/12/26 09:41:14;;;;;;;16.50;9.20;;;5.80;89.20;;;5.94;74.24;101262.72;4975791;28;20039;-85
2020/12/26 09:43:42;;;;;;;17.20;9.07;;;5.80;89.10;;;5.89;73.84;101263.13;4976446;28;20042;-85
2020/12/26 09:46:10;;;;;;;15.07;9.15;;;5.90;88.90;;;5.92;74.64;101262.00;4976415;28;20046;-84
2020/12/26 09:48:37;;;;;;;17.23;8.50;;;5.90;89.00;;;5.94;74.03;101268.13;4978061;28;20566;-84
2020/12/26 09:51:10;;;;;;;14.65;8.40;;;5.90;88.90;;;5.93;73.42;101271.81;4977970;28;20109;-84
2020/12/26 09:53:37;;;;;;;15.85;9.48;;;5.90;88.30;;;5.97;73.70;101263.31;4978316;28;20089;-84
2020/12/26 09:56:09;;;;;;;16.73;8.80;;;5.90;88.60;;;5.91;73.57;101268.41;4977947;28;20884;-84
2020/12/26 09:58:36;;;;;;;17.73;9.45;;;6.00;88.40;;;5.93;73.65;101266.41;4977725;28;20046;-84
2020/12/26 10:01:03;;;;;;;17.65;8.82;;;6.00;88.50;;;5.91;73.77;101254.91;4968190;28;20047;-84
2020/12/26 10:03:30;;;;;;;16.63;9.75;;;6.00;88.40;;;5.96;73.87;101252.66;4979528;28;20117;-84
2020/12/26 10:05:56;;;;;;;21.20;9.52;;;6.00;88.30;;;5.93;73.63;101245.66;4978979;28;20062;-84
2020/12/26 10:08:24;;;;;;;15.40;8.88;;;6.00;88.30;;;5.96;73.93;101239.16;4980864;28;20058;-84
2020/12/26 10:10:53;;;;;;;14.68;9.05;;;6.00;88.30;;;6.00;73.89;101236.06;4980932;28;20042;-84
2020/12/26 10:13:20;;;;;;;24.02;9.65;;;6.00;88.30;;;6.00;73.65;101235.19;4980482;28;20082;-84
2020/12/26 10:15:47;;;;;;;19.48;10.05;;;6.10;88.10;;;5.96;73.13;101222.94;4971740;28;20077;-84
2020/12/26 10:18:14;;;;;;;18.15;9.82;;;6.10;87.70;;;5.96;73.29;101217.53;4973807;28;20427;-84
2020/12/26 10:20:42;;;;;;;18.02;9.13;;;6.10;87.50;;;5.99;73.48;101222.66;4984473;28;20054;-84
2020/12/26 10:23:34;;;;;;;16.25;9.65;;;6.10;87.60;;;6.02;73.36;101217.84;4978400;28;20093;-84
2020/12/26 10:52:12;;;;;;;18.13;8.48;;;6.20;87.20;;;6.10;73.88;101175.78;4995969;28;20088;-84
2020/12/26 10:54:39;;;;;;;18.17;9.40;;;6.30;87.80;;;6.15;73.32;101174.38;4994186;28;20081;-83